createdAt,value
2022-10-01T00:03:02.919Z,6.85
2022-10-01T00:08:04.426Z,7.03
2022-10-01T00:13:06.611Z,10.23
2022-10-01T00:18:09.680Z,10.73
2022-10-01T00:23:12.583Z,8.10
2022-10-01T00:28:14.065Z,6.72
2022-10-01T00:33:15.559Z,7.60
2022-10-01T00:38:17.007Z,10.35
2022-10-01T00:43:31.707Z,9.50
2022-10-01T00:48:40.041Z,7.55
2022-10-01T00:53:43.742Z,6.40
2022-10-01T00:58:45.640Z,7.97
2022-10-01T01:03:47.667Z,9.75
2022-10-01T01:08:55.214Z,4.70
2022-10-01T01:14:10.882Z,6.07
2022-10-01T01:19:34.215Z,3.70
2022-10-01T01:24:57.592Z,4.77
2022-10-01T01:30:03.664Z,3.67
2022-10-01T01:35:10.099Z,4.32
2022-10-01T01:40:15.364Z,4.85
2022-10-01T01:45:25.953Z,3.20
2022-10-01T01:50:34.486Z,5.78
2022-10-01T01:55:37.111Z,7.22
2022-10-01T02:00:39.189Z,6.00
2022-10-01T02:06:04.829Z,7.05
2022-10-01T02:11:33.857Z,4.82
2022-10-01T02:17:01.992Z,6.22
2022-10-01T02:22:12.801Z,6.00
2022-10-01T02:27:23.570Z,4.50
2022-10-01T02:32:28.392Z,4.95
2022-10-01T02:37:30.162Z,3.42
2022-10-01T02:42:35.437Z,3.17
2022-10-01T02:47:43.594Z,5.40
2022-10-01T02:52:55.570Z,3.88
2022-10-01T02:57:58.091Z,3.13
2022-10-01T03:02:59.629Z,3.15
2022-10-01T03:08:01.523Z,9.05
2022-10-01T03:13:03.077Z,5.45
2022-10-01T03:18:04.492Z,3.30
2022-10-01T03:23:06.033Z,3.47
2022-10-01T03:28:07.493Z,5.55
2022-10-01T03:33:08.979Z,8.40
2022-10-01T03:38:10.484Z,6.63
2022-10-01T03:43:12.208Z,4.60
2022-10-01T03:48:13.948Z,6.03
2022-10-01T03:53:15.390Z,6.93
2022-10-01T03:58:18.889Z,5.25
2022-10-01T04:03:20.678Z,9.00
2022-10-01T04:08:24.551Z,5.00
2022-10-01T04:13:26.270Z,9.15
2022-10-01T04:18:28.032Z,8.50
2022-10-01T04:23:29.435Z,7.05
2022-10-01T04:28:31.685Z,6.60
2022-10-01T04:33:33.144Z,11.38
2022-10-01T04:38:34.964Z,7.35
2022-10-01T04:43:36.909Z,9.27
2022-10-01T04:48:38.327Z,11.57
2022-10-01T04:53:39.768Z,7.50
2022-10-01T04:58:41.225Z,6.60
2022-10-01T05:03:42.636Z,7.50
2022-10-01T05:08:44.135Z,9.30
2022-10-01T05:13:45.552Z,7.25
2022-10-01T05:18:46.971Z,6.60
2022-10-01T05:23:48.531Z,7.60
2022-10-01T05:28:51.097Z,7.88
2022-10-01T05:33:52.584Z,6.97
2022-10-01T05:38:54.156Z,7.45
2022-10-01T05:43:55.608Z,6.97
2022-10-01T05:48:57.013Z,7.03
2022-10-01T05:54:02.377Z,6.63
2022-10-01T05:59:04.506Z,6.95
2022-10-01T06:04:05.986Z,6.25
2022-10-01T06:09:07.488Z,6.32
2022-10-01T06:14:08.917Z,7.53
2022-10-01T06:19:10.494Z,8.05
2022-10-01T06:24:11.996Z,9.18
2022-10-01T06:29:13.476Z,6.28
2022-10-01T06:34:14.898Z,6.90
2022-10-01T06:39:17.054Z,6.50
2022-10-01T06:44:20.368Z,9.40
2022-10-01T06:49:22.676Z,6.93
2022-10-01T06:54:27.238Z,5.63
2022-10-01T07:04:30.113Z,6.97
2022-10-01T07:09:31.548Z,7.93
2022-10-01T07:14:33.257Z,6.53
2022-10-01T07:19:34.685Z,5.90
2022-10-01T07:24:36.132Z,7.70
2022-10-01T07:29:37.576Z,5.03
2022-10-01T07:34:42.531Z,5.20
2022-10-01T07:39:44.104Z,5.53
2022-10-01T07:44:45.515Z,4.25
2022-10-01T07:49:46.929Z,5.85
2022-10-01T07:54:48.604Z,4.57
2022-10-01T07:59:54.883Z,4.03
2022-10-01T08:05:15.580Z,4.05
2022-10-01T08:10:19.092Z,9.18
2022-10-01T08:15:20.513Z,4.63
2022-10-01T08:20:22.023Z,4.10
2022-10-01T08:25:23.483Z,3.78
2022-10-01T08:30:25.405Z,5.43
2022-10-01T08:35:28.463Z,4.32
2022-10-01T08:40:33.879Z,4.55
2022-10-01T08:45:51.022Z,7.70
2022-10-01T08:50:57.486Z,4.00
2022-10-01T08:56:01.559Z,6.32
2022-10-01T09:01:03.292Z,3.55
2022-10-01T09:06:21.933Z,7.80
2022-10-01T09:11:58.617Z,9.88
2022-10-01T09:17:10.781Z,3.50
2022-10-01T09:22:27.785Z,5.22
2022-10-01T09:27:29.326Z,2.55
2022-10-01T09:32:38.589Z,3.22
2022-10-01T09:37:51.769Z,2.55
2022-10-01T09:42:53.328Z,2.58
2022-10-01T09:48:04.625Z,2.85
2022-10-01T09:53:13.637Z,4.30
2022-10-01T09:58:18.592Z,3.38
2022-10-01T10:03:31.884Z,2.85
2022-10-01T10:08:40.037Z,4.80
2022-10-01T10:13:50.156Z,6.53
2022-10-01T10:18:54.336Z,5.25
2022-10-01T10:23:59.263Z,5.65
2022-10-01T10:29:03.011Z,2.85
2022-10-01T10:34:18.444Z,4.63
2022-10-01T10:39:24.480Z,7.55
2022-10-01T10:44:31.923Z,4.72
2022-10-01T10:49:43.411Z,4.20
2022-10-01T10:54:48.229Z,6.25
2022-10-01T11:00:01.849Z,7.38
2022-10-01T11:05:20.341Z,11.90
2022-10-01T11:10:27.674Z,10.95
2022-10-01T11:15:41.997Z,9.63
2022-10-01T11:21:01.489Z,11.68
2022-10-01T11:26:11.941Z,15.38
2022-10-01T11:31:29.564Z,13.63
2022-10-01T11:36:42.675Z,13.18
2022-10-01T11:41:50.037Z,21.53
2022-10-01T11:47:08.599Z,11.90
2022-10-01T11:52:33.072Z,8.48
2022-10-01T11:57:53.120Z,10.32
2022-10-01T12:03:02.069Z,12.82
2022-10-01T12:08:14.791Z,13.85
2022-10-01T12:13:16.140Z,10.13
2022-10-01T12:18:20.481Z,9.13
2022-10-01T12:23:28.324Z,6.82
2022-10-01T12:29:00.387Z,6.35
2022-10-01T12:34:24.127Z,13.05
2022-10-01T12:39:40.928Z,8.85
2022-10-01T12:45:01.322Z,12.82
2022-10-01T12:50:24.633Z,11.73
2022-10-01T12:55:47.621Z,17.35
2022-10-01T13:01:03.401Z,13.70
2022-10-01T13:06:22.346Z,9.48
2022-10-01T13:11:53.173Z,14.52
2022-10-01T13:17:20.172Z,15.07
2022-10-01T13:22:41.275Z,5.70
2022-10-01T13:27:49.498Z,4.68
2022-10-01T13:33:00.756Z,5.45
2022-10-01T13:38:14.352Z,6.75
2022-10-01T13:43:18.750Z,5.18
2022-10-01T13:48:20.475Z,7.82
2022-10-01T13:53:25.413Z,4.65
2022-10-01T13:58:29.593Z,3.60
2022-10-01T14:03:49.802Z,2.63
2022-10-01T14:09:00.376Z,5.10
2022-10-01T14:14:30.424Z,2.92
2022-10-01T14:19:32.303Z,3.70
2022-10-01T14:24:48.872Z,5.65
2022-10-01T14:30:10.826Z,5.80
2022-10-01T14:35:36.832Z,4.50
2022-10-01T14:40:41.428Z,7.47
2022-10-01T14:46:03.087Z,6.72
2022-10-01T14:51:20.545Z,8.07
2022-10-01T14:56:22.794Z,6.60
2022-10-01T15:01:25.421Z,4.25
2022-10-01T15:06:29.650Z,6.32
2022-10-01T15:11:33.412Z,6.82
2022-10-01T15:16:36.623Z,8.52
2022-10-01T15:21:54.425Z,7.67
2022-10-01T15:26:57.881Z,11.15
2022-10-01T15:32:00.556Z,5.67
2022-10-01T15:37:03.698Z,8.25
2022-10-01T15:42:27.134Z,7.85
2022-10-01T15:47:39.317Z,8.32
2022-10-01T15:52:50.574Z,4.65
2022-10-01T15:57:58.314Z,5.07
2022-10-01T16:03:00.510Z,9.63
2022-10-01T16:08:02.270Z,14.93
2022-10-01T16:13:36.557Z,10.65
2022-10-01T16:18:38.605Z,14.63
2022-10-01T16:23:40.141Z,8.88
2022-10-01T16:28:42.366Z,10.43
2022-10-01T16:33:43.980Z,6.90
2022-10-01T16:38:46.295Z,8.98
2022-10-01T16:43:49.897Z,14.45
2022-10-01T16:48:51.963Z,5.73
2022-10-01T16:53:55.050Z,6.78
2022-10-01T16:58:56.482Z,8.43
2022-10-01T17:03:57.893Z,9.07
2022-10-01T17:08:59.970Z,7.78
2022-10-01T17:14:08.201Z,12.18
2022-10-01T17:19:10.723Z,13.55
2022-10-01T17:24:12.853Z,10.75
2022-10-01T17:29:14.589Z,4.47
2022-10-01T17:34:16.149Z,15.25
2022-10-01T17:39:17.574Z,9.75
2022-10-01T17:44:19.130Z,11.98
2022-10-01T17:49:21.601Z,14.05
2022-10-01T17:54:23.285Z,10.82
2022-10-01T17:59:25.481Z,12.23
2022-10-01T18:04:26.932Z,10.90
2022-10-01T18:09:28.341Z,14.02
2022-10-01T18:14:30.160Z,13.55
2022-10-01T18:19:52.929Z,12.63
2022-10-01T18:24:53.178Z,12.15
2022-10-01T18:29:54.615Z,15.02
2022-10-01T18:34:58.858Z,13.63
2022-10-01T18:40:07.033Z,18.15
2022-10-01T18:45:43.395Z,11.95
2022-10-01T18:51:23.472Z,15.60
2022-10-01T18:57:09.081Z,13.27
2022-10-01T19:02:20.802Z,15.13
2022-10-01T19:07:59.699Z,17.02
2022-10-01T19:13:11.709Z,15.88
2022-10-01T19:18:26.391Z,19.08
2022-10-01T19:23:58.393Z,12.90
2022-10-01T19:29:11.944Z,15.10
2022-10-01T19:34:24.657Z,12.63
2022-10-01T19:39:29.935Z,14.43
2022-10-01T19:44:45.929Z,12.50
2022-10-01T19:49:55.527Z,23.95
2022-10-01T19:55:00.737Z,14.35
2022-10-01T20:00:11.581Z,14.07
2022-10-01T20:05:18.674Z,24.10
2022-10-01T20:10:43.706Z,14.55
2022-10-01T20:16:07.561Z,11.70
2022-10-01T20:21:42.918Z,12.55
2022-10-01T20:26:47.108Z,14.65
2022-10-01T20:31:54.159Z,14.38
2022-10-01T20:37:14.714Z,10.10
2022-10-01T20:42:24.121Z,9.85
2022-10-01T20:47:36.488Z,18.35
2022-10-01T20:52:47.180Z,16.50
2022-10-01T20:57:54.542Z,11.85
2022-10-01T21:03:11.249Z,11.82
2022-10-01T21:08:42.319Z,8.23
2022-10-01T21:13:53.413Z,7.38
2022-10-01T21:19:06.948Z,10.25
2022-10-01T21:24:31.043Z,12.50
2022-10-01T21:29:57.694Z,7.53
2022-10-01T21:35:25.175Z,7.50
2022-10-01T21:41:01.130Z,6.57
2022-10-01T21:46:27.274Z,11.75
2022-10-01T21:51:38.388Z,8.73
2022-10-01T21:56:50.619Z,8.02
2022-10-01T22:02:04.728Z,15.07
2022-10-01T22:07:28.066Z,10.95
2022-10-01T22:12:32.509Z,10.53
2022-10-01T22:17:34.397Z,11.68
2022-10-01T22:22:38.655Z,12.90
2022-10-01T22:27:47.676Z,20.65
2022-10-01T22:32:55.006Z,7.63
2022-10-01T22:38:02.749Z,8.57
2022-10-01T22:43:11.079Z,7.40
2022-10-01T22:48:17.851Z,15.95
2022-10-01T22:53:54.483Z,14.23
2022-10-01T22:59:19.309Z,17.02
2022-10-01T23:04:39.556Z,8.40
2022-10-01T23:09:53.184Z,16.27
2022-10-01T23:14:57.548Z,10.57
2022-10-01T23:20:29.425Z,9.57
2022-10-01T23:25:50.643Z,11.18
2022-10-01T23:31:04.275Z,11.68
2022-10-01T23:36:30.855Z,7.57
2022-10-01T23:41:47.692Z,10.75
2022-10-01T23:46:51.944Z,4.05
2022-10-01T23:52:13.012Z,10.35
2022-10-01T23:57:21.004Z,5.72
